Time;durP1;ratioP1;P1;durP2;ratioP2;P2;SDS_P1;SDS_P2;PMS_P1;PMS_P2;Temp;Humidity;BMP_temperature;BMP_pressure;BME280_temperature;BME280_humidity;BME280_pressure;Samples;Min_cycle;Max_cycle;Signal;HPM_P1;HPM_P2
2020/12/11 00:02:10;;;;;;;8.27;5.10;;;;;;;;;;5022764;28;20213;-83
2020/12/11 00:04:36;;;;;;;6.78;4.30;;;;;;;;;;5022933;28;20465;-82
2020/12/11 00:07:02;;;;;;;6.33;5.27;;;;;;;;;;5022574;28;20226;-83
2020/12/11 00:09:28;;;;;;;6.57;5.32;;;;;;;;;;5023588;28;20430;-77
2020/12/11 00:11:55;;;;;;;8.50;6.03;;;;;;;;;;5022379;28;20193;-83
2020/12/11 00:14:21;;;;;;;7.85;5.32;;;;;;;;;;5023087;28;20195;-83
2020/12/11 00:16:47;;;;;;;6.47;4.43;;;;;;;;;;5023811;28;20242;-83
2020/12/11 00:19:13;;;;;;;6.93;4.70;;;;;;;;;;5023347;28;20209;-83
2020/12/11 00:21:42;;;;;;;6.20;4.55;;;;;;;;;;5029293;28;20182;-82
2020/12/11 00:24:09;;;;;;;7.05;5.07;;;;;;;;;;5014497;28;20205;-82
2020/12/11 00:26:35;;;;;;;9.60;5.60;;;;;;;;;;5014503;28;20191;-83
2020/12/11 00:29:01;;;;;;;7.32;5.50;;;;;;;;;;5019752;28;20194;-82
2020/12/11 00:31:27;;;;;;;7.82;5.40;;;;;;;;;;5012497;28;20265;-82
2020/12/11 00:33:54;;;;;;;5.55;5.05;;;;;;;;;;5024063;28;20209;-83
2020/12/11 00:36:20;;;;;;;7.10;5.18;;;;;;;;;;5017676;28;20205;-83
2020/12/11 00:38:46;;;;;;;4.75;4.35;;;;;;;;;;5022143;28;20277;-83
2020/12/11 00:41:12;;;;;;;8.43;4.25;;;;;;;;;;5015293;28;20700;-82
2020/12/11 00:43:38;;;;;;;9.18;6.65;;;;;;;;;;5022760;28;20221;-81
2020/12/11 00:46:04;;;;;;;7.78;4.78;;;;;;;;;;5021851;28;20191;-83
2020/12/11 00:48:30;;;;;;;8.38;5.05;;;;;;;;;;5023450;28;20186;-83
2020/12/11 00:50:56;;;;;;;5.78;4.65;;;;;;;;;;5022862;28;20268;-83
2020/12/11 00:53:22;;;;;;;7.78;5.13;;;;;;;;;;5028180;28;20190;-83
2020/12/11 00:55:48;;;;;;;6.78;5.40;;;;;;;;;;5022693;28;20178;-83
2020/12/11 00:58:14;;;;;;;7.13;4.95;;;;;;;;;;5022791;28;20183;-83
2020/12/11 01:00:40;;;;;;;8.70;6.50;;;;;;;;;;5022605;28;20213;-83
2020/12/11 01:03:06;;;;;;;6.93;5.10;;;;;;;;;;5016404;28;20181;-83
2020/12/11 01:05:35;;;;;;;9.73;6.90;;;;;;;;;;5016310;28;20277;-83
2020/12/11 01:08:01;;;;;;;11.32;6.22;;;;;;;;;;5021458;28;20449;-83
2020/12/11 01:10:27;;;;;;;8.07;5.50;;;;;;;;;;5023142;28;20178;-83
2020/12/11 01:12:53;;;;;;;11.97;6.40;;;;;;;;;;5021844;28;20623;-82
2020/12/11 01:15:19;;;;;;;9.13;5.77;;;;;;;;;;5032194;28;20436;-83
2020/12/11 01:17:45;;;;;;;8.23;6.30;;;;;;;;;;5039564;28;20592;-83
2020/12/11 01:20:11;;;;;;;8.80;6.47;;;;;;;;;;5022415;28;20437;-83
2020/12/11 01:22:37;;;;;;;9.45;7.10;;;;;;;;;;5018814;28;20536;-83
2020/12/11 01:25:03;;;;;;;9.77;6.43;;;;;;;;;;5015940;28;20214;-83
2020/12/11 01:27:29;;;;;;;8.93;6.82;;;;;;;;;;5017348;28;20457;-83
2020/12/11 01:29:55;;;;;;;8.93;5.50;;;;;;;;;;5009988;28;20258;-83
2020/12/11 01:32:21;;;;;;;8.63;6.07;;;;;;;;;;5016565;28;20445;-83
2020/12/11 01:34:47;;;;;;;7.85;5.70;;;;;;;;;;5022379;28;20449;-82
2020/12/11 01:37:13;;;;;;;12.60;6.50;;;;;;;;;;5021763;28;20198;-83
2020/12/11 01:39:39;;;;;;;9.75;6.70;;;;;;;;;;5022617;28;20197;-83
2020/12/11 01:42:10;;;;;;;7.57;5.97;;;;;;;;;;5020516;28;20254;-83
2020/12/11 01:44:36;;;;;;;13.45;5.93;;;;;;;;;;5020798;28;20469;-82
2020/12/11 01:47:02;;;;;;;7.28;5.60;;;;;;;;;;5015830;28;20430;-83
2020/12/11 01:49:28;;;;;;;8.70;5.85;;;;;;;;;;5020721;28;20186;-84
2020/12/11 01:51:55;;;;;;;9.05;6.50;;;;;;;;;;5015664;28;20178;-83
2020/12/11 01:54:21;;;;;;;11.68;6.18;;;;;;;;;;5022189;28;20253;-83
2020/12/11 01:57:00;;;;;;;9.73;6.47;;;;;;;;;;5022655;28;20561;-83
2020/12/11 01:59:42;;;;;;;8.27;5.40;;;;;;;;;;5021934;28;20266;-83
2020/12/11 02:02:10;;;;;;;9.52;7.03;;;;;;;;;;5014402;28;20202;-83
2020/12/11 02:04:38;;;;;;;12.98;6.25;;;;;;;;;;5021729;28;20205;-83
2020/12/11 02:07:05;;;;;;;9.15;6.20;;;;;;;;;;5016406;28;20205;-83
2020/12/11 02:09:35;;;;;;;7.85;6.32;;;;;;;;;;5020428;28;20654;-83
2020/12/11 02:12:01;;;;;;;12.82;6.70;;;;;;;;;;5018944;28;20244;-83
2020/12/11 02:14:27;;;;;;;9.82;6.80;;;;;;;;;;5018464;28;20214;-84
2020/12/11 02:17:11;;;;;;;10.50;7.00;;;;;;;;;;5020918;28;20205;-83
2020/12/11 02:19:37;;;;;;;9.43;6.18;;;;;;;;;;5022002;28;20217;-81
2020/12/11 02:22:05;;;;;;;9.10;6.03;;;;;;;;;;5021181;28;20442;-83
2020/12/11 02:24:31;;;;;;;6.97;5.93;;;;;;;;;;5026554;28;20490;-83
2020/12/11 02:26:58;;;;;;;8.15;6.20;;;;;;;;;;5016402;28;20194;-83
2020/12/11 02:29:24;;;;;;;7.70;5.40;;;;;;;;;;5015022;28;20205;-83
2020/12/11 02:31:51;;;;;;;8.40;5.68;;;;;;;;;;5017854;28;20331;-83
2020/12/11 02:34:17;;;;;;;10.45;6.53;;;;;;;;;;5024795;28;20198;-83
2020/12/11 02:36:43;;;;;;;8.05;6.70;;;;;;;;;;5020695;28;20185;-82
2020/12/11 02:39:09;;;;;;;9.85;6.28;;;;;;;;;;5021174;28;20186;-83
2020/12/11 02:41:35;;;;;;;7.13;5.88;;;;;;;;;;5016424;28;20191;-83
2020/12/11 02:44:01;;;;;;;9.65;6.82;;;;;;;;;;5030137;28;20238;-83
2020/12/11 02:46:28;;;;;;;8.73;5.80;;;;;;;;;;5037763;28;20197;-83
2020/12/11 02:48:54;;;;;;;6.50;5.07;;;;;;;;;;5020478;28;20226;-83
2020/12/11 02:51:20;;;;;;;8.05;5.80;;;;;;;;;;5022129;28;20659;-82
2020/12/11 02:53:50;;;;;;;8.05;5.45;;;;;;;;;;5013081;28;20219;-83
2020/12/11 02:56:22;;;;;;;7.05;4.88;;;;;;;;;;5018620;28;20190;-80
2020/12/11 02:58:48;;;;;;;7.22;5.10;;;;;;;;;;5014134;28;20187;-84
2020/12/11 03:01:14;;;;;;;8.85;5.65;;;;;;;;;;5021104;28;20194;-83
2020/12/11 03:03:40;;;;;;;12.23;4.65;;;;;;;;;;5024666;28;20217;-84
2020/12/11 03:06:06;;;;;;;10.38;4.80;;;;;;;;;;5024189;28;20180;-83
2020/12/11 03:08:32;;;;;;;6.90;4.93;;;;;;;;;;5025114;28;20257;-82
2020/12/11 03:10:58;;;;;;;6.80;4.90;;;;;;;;;;5018438;28;20172;-83
2020/12/11 03:13:24;;;;;;;8.85;4.90;;;;;;;;;;5022564;28;20261;-84
2020/12/11 03:15:50;;;;;;;7.68;4.68;;;;;;;;;;5023933;28;20733;-83
2020/12/11 03:18:16;;;;;;;10.73;4.75;;;;;;;;;;5018263;28;20178;-83
2020/12/11 03:20:42;;;;;;;10.17;4.07;;;;;;;;;;5015269;28;20205;-84
2020/12/11 03:23:08;;;;;;;5.83;4.30;;;;;;;;;;5025123;28;20459;-83
2020/12/11 03:25:34;;;;;;;4.97;3.85;;;;;;;;;;5023922;28;20444;-83
2020/12/11 03:28:00;;;;;;;7.63;4.97;;;;;;;;;;5022473;28;20190;-83
2020/12/11 03:30:26;;;;;;;4.78;4.28;;;;;;;;;;5023908;28;20453;-83
2020/12/11 03:32:52;;;;;;;5.60;3.70;;;;;;;;;;5015067;28;20254;-83
2020/12/11 03:35:18;;;;;;;4.43;3.60;;;;;;;;;;5018267;28;20433;-82
2020/12/11 03:37:44;;;;;;;5.67;3.70;;;;;;;;;;5019230;28;20461;-82
2020/12/11 03:40:10;;;;;;;5.27;3.20;;;;;;;;;;5020126;28;20445;-77
2020/12/11 03:42:36;;;;;;;7.37;4.80;;;;;;;;;;5017739;28;20438;-81
2020/12/11 03:45:02;;;;;;;5.20;3.40;;;;;;;;;;5021983;28;20453;-82
2020/12/11 03:47:31;;;;;;;8.73;3.85;;;;;;;;;;5014684;28;20426;-82
2020/12/11 03:49:58;;;;;;;5.10;4.25;;;;;;;;;;5022115;28;20191;-81
2020/12/11 03:52:27;;;;;;;7.55;3.28;;;;;;;;;;5022874;28;20180;-79
2020/12/11 03:54:53;;;;;;;5.13;2.90;;;;;;;;;;5035165;28;20209;-82
2020/12/11 03:57:19;;;;;;;4.35;2.58;;;;;;;;;;5018354;28;20186;-81
2020/12/11 03:59:45;;;;;;;3.10;2.40;;;;;;;;;;5016579;28;20190;-81
2020/12/11 04:02:12;;;;;;;7.60;2.90;;;;;;;;;;5022497;28;20440;-82
2020/12/11 04:04:39;;;;;;;8.80;2.92;;;;;;;;;;5021880;28;20840;-81
2020/12/11 04:07:05;;;;;;;6.90;2.58;;;;;;;;;;5024020;28;20190;-82
2020/12/11 04:09:31;;;;;;;10.25;3.20;;;;;;;;;;5035926;28;20175;-81
2020/12/11 04:11:57;;;;;;;7.73;2.67;;;;;;;;;;5014742;28;20623;-81
2020/12/11 04:14:23;;;;;;;2.17;1.93;;;;;;;;;;5021951;28;20472;-81
2020/12/11 04:16:49;;;;;;;6.53;1.83;;;;;;;;;;5020502;28;20441;-82
2020/12/11 04:19:15;;;;;;;5.30;2.00;;;;;;;;;;5017982;28;20453;-83
2020/12/11 04:21:46;;;;;;;6.67;1.67;;;;;;;;;;5022765;28;20209;-82
2020/12/11 04:24:12;;;;;;;3.15;1.60;;;;;;;;;;5022931;28;20516;-82
2020/12/11 04:26:38;;;;;;;4.70;1.30;;;;;;;;;;5014078;28;20627;-82
2020/12/11 04:29:04;;;;;;;2.70;1.20;;;;;;;;;;5014419;28;20191;-81
2020/12/11 04:31:30;;;;;;;6.73;1.40;;;;;;;;;;5019383;28;20425;-84
2020/12/11 04:33:56;;;;;;;3.40;1.50;;;;;;;;;;5018423;28;20763;-84
2020/12/11 04:36:22;;;;;;;1.03;0.93;;;;;;;;;;5022945;28;20440;-84
2020/12/11 04:38:48;;;;;;;9.60;1.80;;;;;;;;;;5013742;28;20449;-84
2020/12/11 04:41:15;;;;;;;1.83;0.90;;;;;;;;;;5014152;28;20473;-84
2020/12/11 04:43:41;;;;;;;1.75;1.17;;;;;;;;;;5018558;28;20270;-83
2020/12/11 04:46:07;;;;;;;2.33;1.25;;;;;;;;;;5022174;28;20181;-83
2020/12/11 04:48:34;;;;;;;2.15;1.00;;;;;;;;;;5023558;28;21017;-84
2020/12/11 04:51:02;;;;;;;1.67;0.80;;;;;;;;;;5023466;28;20190;-84
2020/12/11 04:53:33;;;;;;;3.70;1.20;;;;;;;;;;5017878;28;20199;-84
2020/12/11 04:55:59;;;;;;;3.90;1.05;;;;;;;;;;5018373;28;20183;-85
2020/12/11 04:58:26;;;;;;;2.05;1.00;;;;;;;;;;5018956;28;20183;-84
2020/12/11 05:00:53;;;;;;;2.53;1.25;;;;;;;;;;5023228;28;20221;-84
2020/12/11 05:03:19;;;;;;;3.15;1.20;;;;;;;;;;5017607;28;20198;-84
2020/12/11 05:05:45;;;;;;;5.85;1.10;;;;;;;;;;5014126;28;20178;-83
2020/12/11 05:08:18;;;;;;;0.70;0.70;;;;;;;;;;5016836;28;20686;-83
2020/12/11 05:10:44;;;;;;;1.23;0.90;;;;;;;;;;5018613;28;20178;-83
2020/12/11 05:13:20;;;;;;;2.25;0.90;;;;;;;;;;5020711;28;20734;-82
2020/12/11 05:16:05;;;;;;;2.00;0.80;;;;;;;;;;5023308;28;20182;-83
2020/12/11 05:18:31;;;;;;;5.93;0.80;;;;;;;;;;5039165;28;20189;-83
2020/12/11 05:21:13;;;;;;;2.38;1.00;;;;;;;;;;5031951;28;20181;-83
2020/12/11 05:23:53;;;;;;;1.40;0.77;;;;;;;;;;5018398;28;20276;-83
2020/12/11 05:26:20;;;;;;;4.20;0.93;;;;;;;;;;5012784;28;20213;-81
2020/12/11 05:28:46;;;;;;;8.05;1.00;;;;;;;;;;5019837;28;20187;-83
2020/12/11 05:31:14;;;;;;;2.97;0.85;;;;;;;;;;5020854;28;20201;-84
2020/12/11 05:33:57;;;;;;;1.00;0.90;;;;;;;;;;5021787;28;20186;-82
2020/12/11 05:36:23;;;;;;;1.05;0.80;;;;;;;;;;5023397;28;20190;-83
2020/12/11 05:38:49;;;;;;;1.20;0.60;;;;;;;;;;5022599;28;20205;-84
2020/12/11 05:41:31;;;;;;;5.50;0.97;;;;;;;;;;5020941;28;20437;-83
2020/12/11 05:43:57;;;;;;;0.95;0.77;;;;;;;;;;5016403;28;20494;-82
2020/12/11 05:46:28;;;;;;;3.92;0.82;;;;;;;;;;5020282;28;20190;-82
2020/12/11 05:48:54;;;;;;;1.75;0.70;;;;;;;;;;5016943;28;20639;-82
2020/12/11 05:51:23;;;;;;;3.35;0.65;;;;;;;;;;5022040;28;20182;-82
2020/12/11 05:53:49;;;;;;;2.40;0.70;;;;;;;;;;5021415;28;20272;-82
2020/12/11 05:56:15;;;;;;;1.80;0.70;;;;;;;;;;5016047;28;20445;-83
2020/12/11 05:58:42;;;;;;;3.25;0.90;;;;;;;;;;5031547;28;20187;-82
2020/12/11 06:01:17;;;;;;;4.60;0.80;;;;;;;;;;5021126;28;20274;-81
2020/12/11 06:03:45;;;;;;;2.83;1.08;;;;;;;;;;5022581;28;20742;-81
2020/12/11 06:06:15;;;;;;;1.63;0.77;;;;;;;;;;5014744;28;20226;-82
2020/12/11 06:08:43;;;;;;;3.88;1.42;;;;;;;;;;5022967;28;20647;-82
2020/12/11 06:11:16;;;;;;;1.98;0.95;;;;;;;;;;5025109;28;20189;-81
2020/12/11 06:13:48;;;;;;;5.43;1.17;;;;;;;;;;5013618;28;20198;-81
2020/12/11 06:16:14;;;;;;;2.40;1.05;;;;;;;;;;5024922;28;20186;-82
2020/12/11 06:18:42;;;;;;;7.20;0.80;;;;;;;;;;5018836;28;20246;-81
2020/12/11 06:21:09;;;;;;;2.15;0.93;;;;;;;;;;5040308;28;20186;-81
2020/12/11 06:23:40;;;;;;;1.90;0.95;;;;;;;;;;5040525;28;20384;-81
2020/12/11 06:26:06;;;;;;;2.35;1.00;;;;;;;;;;5025217;28;20262;-82
2020/12/11 06:28:35;;;;;;;1.27;1.10;;;;;;;;;;5025590;28;20213;-81
2020/12/11 06:31:05;;;;;;;2.95;0.80;;;;;;;;;;5026053;28;20237;-81
2020/12/11 06:33:32;;;;;;;6.07;1.17;;;;;;;;;;5032627;28;20228;-81
2020/12/11 06:35:59;;;;;;;1.67;1.05;;;;;;;;;;5035953;28;20189;-82
2020/12/11 06:38:44;;;;;;;2.97;0.75;;;;;;;;;;5015907;28;20191;-80
2020/12/11 06:41:11;;;;;;;2.15;0.80;;;;;;;;;;5016698;28;20198;-81
2020/12/11 06:43:40;;;;;;;2.65;1.13;;;;;;;;;;5022704;28;20240;-81
2020/12/11 06:46:23;;;;;;;1.98;0.60;;;;;;;;;;5019981;28;20188;-81
2020/12/11 06:49:05;;;;;;;3.70;0.90;;;;;;;;;;5023790;28;20174;-80
2020/12/11 06:51:32;;;;;;;0.65;0.65;;;;;;;;;;5021083;28;20187;-81
2020/12/11 06:53:58;;;;;;;2.55;0.70;;;;;;;;;;5024815;28;20229;-80
2020/12/11 06:56:43;;;;;;;1.92;0.60;;;;;;;;;;5018521;28;20191;-80
2020/12/11 06:59:25;;;;;;;0.80;0.80;;;;;;;;;;5024371;28;20518;-80
2020/12/11 07:01:51;;;;;;;0.80;0.60;;;;;;;;;;5024128;28;20190;-82
2020/12/11 07:04:17;;;;;;;1.85;0.75;;;;;;;;;;5024716;28;20214;-80
2020/12/11 07:06:53;;;;;;;0.90;0.65;;;;;;;;;;5021335;28;20238;-81
2020/12/11 07:09:19;;;;;;;3.40;0.70;;;;;;;;;;5014108;28;20406;-81
2020/12/11 07:11:46;;;;;;;1.00;0.60;;;;;;;;;;5011116;28;20178;-82
2020/12/11 07:14:12;;;;;;;1.42;0.65;;;;;;;;;;5017019;28;20224;-82
2020/12/11 07:16:41;;;;;;;1.13;0.60;;;;;;;;;;5013826;28;20651;-81
2020/12/11 07:19:08;;;;;;;0.70;0.70;;;;;;;;;;5018610;28;20191;-81
2020/12/11 07:21:34;;;;;;;0.80;0.70;;;;;;;;;;5017767;28;20902;-81
2020/12/11 07:24:01;;;;;;;1.10;0.60;;;;;;;;;;5022799;28;20210;-81
2020/12/11 07:26:27;;;;;;;2.15;0.65;;;;;;;;;;5015563;28;20178;-82
2020/12/11 07:29:10;;;;;;;1.25;0.80;;;;;;;;;;5019166;28;20191;-82
2020/12/11 07:31:40;;;;;;;3.20;0.90;;;;;;;;;;5021246;28;20179;-81
2020/12/11 07:34:12;;;;;;;1.13;0.80;;;;;;;;;;5013989;28;20190;-81
2020/12/11 07:36:42;;;;;;;2.25;0.80;;;;;;;;;;5034142;28;20336;-80
2020/12/11 07:39:18;;;;;;;3.38;0.90;;;;;;;;;;5017965;28;20190;-81
2020/12/11 07:41:44;;;;;;;2.13;1.00;;;;;;;;;;5017494;28;20597;-81
2020/12/11 07:44:11;;;;;;;1.80;1.20;;;;;;;;;;5019154;28;20207;-81
2020/12/11 07:46:42;;;;;;;1.55;1.15;;;;;;;;;;5023731;28;20631;-81
2020/12/11 07:49:08;;;;;;;1.23;0.80;;;;;;;;;;5018189;28;20182;-81
2020/12/11 07:51:43;;;;;;;1.63;0.90;;;;;;;;;;5011037;28;20186;-81
2020/12/11 07:54:09;;;;;;;1.05;0.98;;;;;;;;;;5018882;28;20468;-80
2020/12/11 07:56:35;;;;;;;1.85;1.00;;;;;;;;;;5021421;28;20225;-82
2020/12/11 07:59:14;;;;;;;1.98;0.95;;;;;;;;;;5018625;28;20201;-83
2020/12/11 08:01:42;;;;;;;2.75;1.08;;;;;;;;;;5017705;28;20206;-82
2020/12/11 08:04:08;;;;;;;1.70;1.10;;;;;;;;;;5021053;28;20206;-81
2020/12/11 08:06:34;;;;;;;1.13;1.02;;;;;;;;;;5024346;28;20690;-81
2020/12/11 08:09:12;;;;;;;1.25;0.80;;;;;;;;;;5019326;28;20194;-81
2020/12/11 08:11:42;;;;;;;1.60;1.00;;;;;;;;;;5019287;28;20193;-83
2020/12/11 08:14:08;;;;;;;2.10;1.00;;;;;;;;;;5021998;28;20189;-82
2020/12/11 08:16:35;;;;;;;1.77;0.90;;;;;;;;;;5027318;28;20190;-81
2020/12/11 08:19:01;;;;;;;3.33;1.17;;;;;;;;;;5015176;28;20195;-82
2020/12/11 08:21:30;;;;;;;1.50;1.20;;;;;;;;;;5023157;28;20265;-81
2020/12/11 08:23:56;;;;;;;1.40;1.23;;;;;;;;;;5013907;28;20214;-82
2020/12/11 08:26:22;;;;;;;4.43;1.45;;;;;;;;;;5022262;28;20634;-81
2020/12/11 08:28:49;;;;;;;4.03;1.50;;;;;;;;;;5021236;28;20187;-82
2020/12/11 08:31:20;;;;;;;2.15;1.50;;;;;;;;;;5018988;28;20190;-82
2020/12/11 08:33:47;;;;;;;1.55;1.20;;;;;;;;;;5017929;28;20186;-82
2020/12/11 08:36:21;;;;;;;1.90;1.00;;;;;;;;;;5015940;28;20194;-84
2020/12/11 08:39:05;;;;;;;2.45;1.27;;;;;;;;;;5022662;28;20206;-83
2020/12/11 08:41:32;;;;;;;0.85;0.85;;;;;;;;;;5013585;28;20563;-83
2020/12/11 08:43:59;;;;;;;1.42;1.05;;;;;;;;;;5022260;28;20189;-84
2020/12/11 08:46:45;;;;;;;2.05;0.88;;;;;;;;;;5022353;28;20183;-83
2020/12/11 08:49:21;;;;;;;2.10;0.90;;;;;;;;;;5018575;28;20201;-83
2020/12/11 08:51:47;;;;;;;1.20;1.10;;;;;;;;;;5015679;28;20528;-84
2020/12/11 08:54:14;;;;;;;1.45;1.08;;;;;;;;;;5022618;28;20240;-83
2020/12/11 08:56:44;;;;;;;1.20;0.95;;;;;;;;;;5013724;28;20198;-83
2020/12/11 08:59:10;;;;;;;1.45;1.00;;;;;;;;;;5022858;28;20197;-85
2020/12/11 09:01:36;;;;;;;1.15;1.02;;;;;;;;;;5022048;28;20527;-83
2020/12/11 09:04:02;;;;;;;1.15;0.75;;;;;;;;;;5022448;28;20233;-83
2020/12/11 09:06:28;;;;;;;0.90;0.90;;;;;;;;;;5022578;28;20178;-83
2020/12/11 09:08:54;;;;;;;1.17;0.90;;;;;;;;;;5014405;28;20214;-84
2020/12/11 09:11:20;;;;;;;1.85;1.00;;;;;;;;;;5013411;28;20450;-85
2020/12/11 09:13:46;;;;;;;2.47;1.15;;;;;;;;;;5019920;28;20197;-83
2020/12/11 09:16:12;;;;;;;2.95;1.00;;;;;;;;;;5017426;28;20198;-84
2020/12/11 09:18:38;;;;;;;2.20;1.00;;;;;;;;;;5014216;28;20238;-82
2020/12/11 09:21:04;;;;;;;3.13;1.17;;;;;;;;;;5023185;28;20425;-83
2020/12/11 09:23:30;;;;;;;0.80;0.80;;;;;;;;;;5013157;28;20837;-83
2020/12/11 09:25:57;;;;;;;2.42;1.38;;;;;;;;;;5018711;28;20305;-83
2020/12/11 09:28:24;;;;;;;3.35;1.50;;;;;;;;;;5018384;28;20189;-83
2020/12/11 09:30:50;;;;;;;1.45;1.08;;;;;;;;;;5023204;28;20230;-83
2020/12/11 09:33:19;;;;;;;1.38;1.15;;;;;;;;;;5020214;28;20209;-83
2020/12/11 09:35:45;;;;;;;1.50;1.08;;;;;;;;;;5016560;28;20178;-84
2020/12/11 09:38:11;;;;;;;1.30;0.95;;;;;;;;;;5021445;28;20186;-83
2020/12/11 09:40:45;;;;;;;1.55;1.00;;;;;;;;;;5036556;28;20246;-83
2020/12/11 09:51:08;;;;;;;1.23;1.13;;;;;;;;;;5020949;28;20183;-84
2020/12/11 09:54:05;;;;;;;1.50;1.10;;;;;;;;;;5021228;28;20257;-83
2020/12/11 09:56:31;;;;;;;1.60;1.10;;;;;;;;;;5024108;28;20216;-84
2020/12/11 09:59:03;;;;;;;1.77;0.97;;;;;;;;;;5020234;28;20183;-84
2020/12/11 10:01:44;;;;;;;1.55;1.20;;;;;;;;;;5024957;28;20484;-85
2020/12/11 10:04:10;;;;;;;1.25;1.15;;;;;;;;;;5018330;28;20225;-83
2020/12/11 10:06:36;;;;;;;1.58;1.20;;;;;;;;;;5022919;28;20175;-83
2020/12/11 10:09:02;;;;;;;2.30;1.50;;;;;;;;;;5019230;28;20186;-84
2020/12/11 10:11:28;;;;;;;2.90;1.70;;;;;;;;;;5015532;28;20190;-84
2020/12/11 10:14:12;;;;;;;2.05;1.50;;;;;;;;;;5018770;28;20254;-85
2020/12/11 10:16:38;;;;;;;2.78;1.80;;;;;;;;;;5023718;28;20183;-85
2020/12/11 10:19:04;;;;;;;2.00;1.75;;;;;;;;;;5018977;28;20524;-85
2020/12/11 10:21:30;;;;;;;2.42;2.22;;;;;;;;;;5024237;28;20186;-83
2020/12/11 10:23:56;;;;;;;2.30;1.63;;;;;;;;;;5024528;28;20206;-83
2020/12/11 10:26:22;;;;;;;2.15;1.50;;;;;;;;;;5021681;28;20183;-82
2020/12/11 10:28:48;;;;;;;1.25;1.15;;;;;;;;;;5016732;28;20190;-84
2020/12/11 10:31:14;;;;;;;1.52;1.35;;;;;;;;;;5023322;28;20186;-86
2020/12/11 10:33:40;;;;;;;1.65;1.40;;;;;;;;;;5024336;28;20189;-85
2020/12/11 10:36:06;;;;;;;1.40;1.30;;;;;;;;;;5018817;28;20179;-86
2020/12/11 10:38:32;;;;;;;1.35;1.23;;;;;;;;;;5014683;28;20449;-86
2020/12/11 10:40:58;;;;;;;2.40;1.20;;;;;;;;;;5022275;28;20190;-85
2020/12/11 10:43:24;;;;;;;2.17;1.20;;;;;;;;;;5024007;28;20597;-84
2020/12/11 10:45:50;;;;;;;2.55;1.65;;;;;;;;;;5017628;28;20210;-84
2020/12/11 10:48:16;;;;;;;1.47;1.20;;;;;;;;;;5034416;28;20183;-85
2020/12/11 10:50:42;;;;;;;1.42;1.20;;;;;;;;;;5020987;28;20429;-85
2020/12/11 10:53:08;;;;;;;2.40;1.77;;;;;;;;;;5040097;28;20187;-85
2020/12/11 10:55:34;;;;;;;2.40;0.90;;;;;;;;;;5000601;28;664983;-85
2020/12/11 10:58:00;;;;;;;1.67;1.20;;;;;;;;;;5022913;28;20187;-84
2020/12/11 11:00:26;;;;;;;1.53;1.40;;;;;;;;;;5022860;28;20186;-85
2020/12/11 11:02:52;;;;;;;1.50;1.03;;;;;;;;;;5023198;28;20484;-86
2020/12/11 11:05:18;;;;;;;2.30;1.10;;;;;;;;;;5019106;28;20465;-81
2020/12/11 11:07:44;;;;;;;2.92;1.15;;;;;;;;;;5008650;28;20506;-86
2020/12/11 11:13:00;;;;;;;2.60;1.03;;;;;;;;;;5025742;28;20182;-83
2020/12/11 11:15:41;;;;;;;1.10;1.00;;;;;;;;;;5040694;28;20421;-83
2020/12/11 11:18:32;;;;;;;1.33;1.00;;;;;;;;;;5025680;28;20177;-83
2020/12/11 11:28:25;;;;;;;3.63;1.50;;;;;;;;;;5021494;28;20197;-84
2020/12/11 11:30:51;;;;;;;2.03;1.83;;;;;;;;;;5033677;28;20445;-84
2020/12/11 11:33:17;;;;;;;1.80;1.30;;;;;;;;;;5022288;28;21236;-83
2020/12/11 11:35:45;;;;;;;1.50;1.23;;;;;;;;;;5022573;28;20441;-83
2020/12/11 11:38:11;;;;;;;5.68;1.20;;;;;;;;;;5012920;28;20583;-83
2020/12/11 11:40:39;;;;;;;2.70;1.50;;;;;;;;;;5021966;28;20182;-83
2020/12/11 11:43:05;;;;;;;5.22;2.10;;;;;;;;;;5017408;28;20190;-83
2020/12/11 11:45:35;;;;;;;4.00;1.40;;;;;;;;;;5025023;28;20233;-82
2020/12/11 11:48:01;;;;;;;6.53;1.73;;;;;;;;;;5022504;28;20629;-83
2020/12/11 11:50:41;;;;;;;3.53;1.42;;;;;;;;;;5024113;28;20205;-84
2020/12/11 11:53:19;;;;;;;8.27;2.25;;;;;;;;;;5016603;28;20205;-83
2020/12/11 11:55:47;;;;;;;5.18;2.28;;;;;;;;;;5037201;28;20245;-83
2020/12/11 11:58:13;;;;;;;4.43;1.98;;;;;;;;;;5023604;28;20198;-83
2020/12/11 12:00:39;;;;;;;4.68;1.95;;;;;;;;;;5023733;28;20193;-82
2020/12/11 12:03:05;;;;;;;8.37;1.90;;;;;;;;;;5039112;28;20185;-83
2020/12/11 12:05:31;;;;;;;6.97;1.60;;;;;;;;;;5017625;28;20483;-82
2020/12/11 12:07:57;;;;;;;6.10;2.10;;;;;;;;;;5023632;28;20182;-82
2020/12/11 12:10:23;;;;;;;4.45;2.10;;;;;;;;;;5023830;28;20183;-83
2020/12/11 12:12:49;;;;;;;7.30;2.13;;;;;;;;;;5020032;28;20246;-82
2020/12/11 12:15:18;;;;;;;5.70;2.30;;;;;;;;;;5023633;28;20257;-82
2020/12/11 12:18:09;;;;;;;3.67;1.70;;;;;;;;;;5041475;28;20710;-81
2020/12/11 12:30:45;;;;;;;2.90;1.60;;;;;;;;;;5017721;28;20206;-81
2020/12/11 12:43:26;;;;;;;6.88;2.40;;;;;;;;;;5021444;28;20186;-83
2020/12/11 12:45:52;;;;;;;7.72;2.25;;;;;;;;;;5017336;28;20292;-82
2020/12/11 12:48:18;;;;;;;2.13;1.77;;;;;;;;;;5019264;28;20575;-81
2020/12/11 12:50:44;;;;;;;6.03;2.13;;;;;;;;;;5023813;28;20509;-82
2020/12/11 12:53:10;;;;;;;10.07;2.30;;;;;;;;;;5018271;28;20438;-82
2020/12/11 12:55:45;;;;;;;4.30;1.80;;;;;;;;;;5021535;28;20233;-82
2020/12/11 12:58:14;;;;;;;7.20;3.30;;;;;;;;;;5008434;28;20339;-81
2020/12/11 13:00:55;;;;;;;6.57;2.35;;;;;;;;;;5023316;28;20175;-81
2020/12/11 13:03:32;;;;;;;4.93;2.22;;;;;;;;;;5014814;28;20651;-81
2020/12/11 13:05:58;;;;;;;2.42;1.80;;;;;;;;;;5022718;28;20190;-82
2020/12/11 13:08:24;;;;;;;2.95;2.17;;;;;;;;;;5013395;28;20628;-83
2020/12/11 13:10:50;;;;;;;5.37;2.37;;;;;;;;;;5017247;28;20182;-83
2020/12/11 13:13:16;;;;;;;6.25;2.15;;;;;;;;;;5020275;28;20448;-83
2020/12/11 13:15:42;;;;;;;3.27;1.73;;;;;;;;;;5016399;28;20179;-80
2020/12/11 13:18:08;;;;;;;5.00;2.58;;;;;;;;;;5020411;28;20437;-78
2020/12/11 13:20:38;;;;;;;6.78;2.75;;;;;;;;;;5013284;28;20186;-80
2020/12/11 13:25:23;;;;;;;5.32;3.13;;;;;;;;;;5021638;28;20186;-79
2020/12/11 13:26:53;;;;;;;8.98;2.50;;;;;;;;;;5021078;28;20212;-80
2020/12/11 13:28:45;;;;;;;2.95;2.55;;;;;;;;;;5002135;28;20186;-79
2020/12/11 13:31:16;;;;;;;8.90;2.57;;;;;;;;;;5022936;28;20218;-80
2020/12/11 13:33:42;;;;;;;8.30;2.55;;;;;;;;;;5016338;28;20422;-81
2020/12/11 13:36:08;;;;;;;4.13;1.93;;;;;;;;;;5016001;28;20182;-81
2020/12/11 13:38:34;;;;;;;7.82;2.40;;;;;;;;;;5021789;28;20445;-81
2020/12/11 13:41:01;;;;;;;7.18;2.70;;;;;;;;;;5015613;28;20233;-80
2020/12/11 13:43:27;;;;;;;5.53;2.92;;;;;;;;;;5021001;28;20236;-81
2020/12/11 13:45:53;;;;;;;3.20;2.90;;;;;;;;;;5016256;28;20575;-80
2020/12/11 13:48:19;;;;;;;4.30;2.10;;;;;;;;;;5016407;28;20426;-81
2020/12/11 13:50:45;;;;;;;5.40;3.23;;;;;;;;;;5022372;28;20444;-82
2020/12/11 13:53:11;;;;;;;6.40;2.38;;;;;;;;;;5013829;28;20526;-81
2020/12/11 13:55:37;;;;;;;5.03;2.15;;;;;;;;;;5021730;28;20246;-80
2020/12/11 13:58:03;;;;;;;5.47;3.17;;;;;;;;;;5012213;28;20190;-81
2020/12/11 14:00:29;;;;;;;3.15;2.58;;;;;;;;;;5023910;28;20211;-80
2020/12/11 14:02:56;;;;;;;7.47;2.72;;;;;;;;;;5014400;28;20220;-80
2020/12/11 14:05:22;;;;;;;6.07;2.95;;;;;;;;;;5020230;28;20208;-80
2020/12/11 14:07:47;;;;;;;4.30;2.43;;;;;;;;;;5016803;28;20258;-80
2020/12/11 14:10:13;;;;;;;5.83;2.57;;;;;;;;;;5018273;28;20433;-79
2020/12/11 14:12:39;;;;;;;10.20;3.42;;;;;;;;;;5022459;28;20787;-79
2020/12/11 14:15:06;;;;;;;5.00;3.20;;;;;;;;;;5022068;28;20586;-79
2020/12/11 14:17:48;;;;;;;6.07;3.75;;;;;;;;;;5015064;28;20268;-78
2020/12/11 14:22:50;;;;;;;13.90;3.15;;;;;;;;;;5019942;28;20183;-79
2020/12/11 14:25:16;;;;;;;9.65;2.45;;;;;;;;;;5039816;28;20815;-78
2020/12/11 14:27:42;;;;;;;5.00;2.35;;;;;;;;;;5018654;28;20565;-78
2020/12/11 14:30:08;;;;;;;4.75;2.67;;;;;;;;;;5014819;28;20170;-78
2020/12/11 14:32:34;;;;;;;4.90;2.13;;;;;;;;;;5025483;28;20182;-79
2020/12/11 14:35:00;;;;;;;6.10;2.33;;;;;;;;;;5023930;28;20194;-79
2020/12/11 14:37:26;;;;;;;4.72;1.83;;;;;;;;;;5025075;28;20194;-79
2020/12/11 14:39:52;;;;;;;4.63;1.77;;;;;;;;;;5019672;28;20233;-79
2020/12/11 14:42:18;;;;;;;4.90;1.50;;;;;;;;;;5026449;28;20647;-79
2020/12/11 14:44:44;;;;;;;9.30;1.80;;;;;;;;;;5025794;28;20461;-81
2020/12/11 14:47:10;;;;;;;6.88;1.80;;;;;;;;;;5017382;28;20430;-81
2020/12/11 14:49:36;;;;;;;1.20;1.10;;;;;;;;;;5021914;28;20198;-80
2020/12/11 14:52:05;;;;;;;1.77;1.20;;;;;;;;;;5018515;28;20464;-80
2020/12/11 14:54:31;;;;;;;3.85;1.58;;;;;;;;;;5026362;28;20232;-80
2020/12/11 14:56:57;;;;;;;1.90;1.60;;;;;;;;;;5016001;28;20258;-80
2020/12/11 14:59:24;;;;;;;9.18;3.42;;;;;;;;;;5016258;28;20451;-80
2020/12/11 15:01:52;;;;;;;4.07;1.65;;;;;;;;;;5034387;28;20174;-80
2020/12/11 15:04:18;;;;;;;2.30;2.08;;;;;;;;;;5021446;28;20207;-80
2020/12/11 15:06:48;;;;;;;4.38;2.10;;;;;;;;;;5023890;28;20181;-80
2020/12/11 15:09:15;;;;;;;1.70;1.60;;;;;;;;;;5024727;28;20197;-79
2020/12/11 15:11:41;;;;;;;6.38;2.22;;;;;;;;;;5024025;28;20179;-80
2020/12/11 15:14:07;;;;;;;4.93;2.20;;;;;;;;;;5017281;28;20225;-80
2020/12/11 15:16:33;;;;;;;3.22;2.13;;;;;;;;;;5021068;28;20186;-80
2020/12/11 15:18:59;;;;;;;3.35;2.08;;;;;;;;;;5019315;28;20198;-80
2020/12/11 15:21:25;;;;;;;4.37;1.97;;;;;;;;;;5025569;28;20244;-79
2020/12/11 15:23:51;;;;;;;1.65;1.52;;;;;;;;;;5012337;28;20446;-79
2020/12/11 15:26:17;;;;;;;6.67;2.00;;;;;;;;;;5014169;28;20183;-80
2020/12/11 15:28:43;;;;;;;6.65;1.70;;;;;;;;;;5023117;28;20434;-79
2020/12/11 15:31:09;;;;;;;3.85;1.67;;;;;;;;;;5023400;28;20182;-80